Time;durP1;ratioP1;P1;durP2;ratioP2;P2;SDS_P1;SDS_P2;PMS_P1;PMS_P2;Temp;Humidity;BMP_temperature;BMP_pressure;BME280_temperature;BME280_humidity;BME280_pressure;Samples;Min_cycle;Max_cycle;Signal;HPM_P1;HPM_P2
2021/12/03 00:01:39;;;;;;;7.07;5.82;;;;;;;;;;5073319;28;20186;-64
2021/12/03 00:04:11;;;;;;;8.40;5.25;;;;;;;;;;5073731;28;20202;-64
2021/12/03 00:06:39;;;;;;;7.55;5.07;;;;;;;;;;5073486;28;20236;-64
2021/12/03 00:09:20;;;;;;;8.57;6.57;;;;;;;;;;5073423;28;20240;-64
2021/12/03 00:11:49;;;;;;;7.78;5.40;;;;;;;;;;5073424;28;20194;-64
2021/12/03 00:14:19;;;;;;;6.07;4.93;;;;;;;;;;5073316;28;20280;-64
2021/12/03 00:16:46;;;;;;;8.05;5.70;;;;;;;;;;5073071;28;20321;-64
2021/12/03 00:19:14;;;;;;;6.32;5.20;;;;;;;;;;5073404;28;20270;-64
2021/12/03 00:21:41;;;;;;;7.15;5.65;;;;;;;;;;5073193;28;20301;-64
2021/12/03 00:24:08;;;;;;;7.40;5.75;;;;;;;;;;5073076;28;20189;-64
2021/12/03 00:26:38;;;;;;;6.05;4.45;;;;;;;;;;5073181;28;20194;-65
2021/12/03 00:29:07;;;;;;;7.63;4.95;;;;;;;;;;5073269;28;20229;-64
2021/12/03 00:31:38;;;;;;;7.90;4.85;;;;;;;;;;5073046;28;20202;-64
2021/12/03 00:34:07;;;;;;;8.50;5.50;;;;;;;;;;5073206;28;20627;-64
2021/12/03 00:36:43;;;;;;;8.25;5.00;;;;;;;;;;5073066;28;20221;-64
2021/12/03 00:39:10;;;;;;;6.60;4.63;;;;;;;;;;5073208;28;20595;-65
2021/12/03 00:41:45;;;;;;;9.23;5.80;;;;;;;;;;5072926;28;20247;-64
2021/12/03 00:44:14;;;;;;;7.20;5.18;;;;;;;;;;5073221;28;20197;-65
2021/12/03 00:46:41;;;;;;;7.72;5.85;;;;;;;;;;5072997;28;20190;-64
2021/12/03 00:49:09;;;;;;;6.97;5.00;;;;;;;;;;5072686;28;20190;-64
2021/12/03 00:51:36;;;;;;;5.90;4.97;;;;;;;;;;5072830;28;20225;-64
2021/12/03 00:54:05;;;;;;;7.30;5.80;;;;;;;;;;5072839;28;20190;-64
2021/12/03 00:56:33;;;;;;;8.02;5.53;;;;;;;;;;5072482;28;20754;-64
2021/12/03 00:59:03;;;;;;;6.82;5.43;;;;;;;;;;5072651;28;20194;-64
2021/12/03 01:01:35;;;;;;;7.10;5.53;;;;;;;;;;5072320;28;20194;-64
2021/12/03 01:04:03;;;;;;;7.20;5.43;;;;;;;;;;5072527;28;20645;-65
2021/12/03 01:06:30;;;;;;;7.20;5.75;;;;;;;;;;5072603;28;20267;-64
2021/12/03 01:09:00;;;;;;;6.05;4.80;;;;;;;;;;5072329;28;20224;-63
2021/12/03 01:11:28;;;;;;;6.60;4.97;;;;;;;;;;5072349;28;20233;-64
2021/12/03 01:14:00;;;;;;;9.35;5.47;;;;;;;;;;5072516;28;20255;-63
2021/12/03 01:16:27;;;;;;;7.13;4.95;;;;;;;;;;5072036;28;20226;-63
2021/12/03 01:18:56;;;;;;;6.65;4.53;;;;;;;;;;5072202;28;20508;-63
2021/12/03 01:21:24;;;;;;;7.15;5.38;;;;;;;;;;5072387;28;20263;-63
2021/12/03 01:23:55;;;;;;;7.43;5.20;;;;;;;;;;5072238;28;20712;-63
2021/12/03 01:26:23;;;;;;;7.63;5.00;;;;;;;;;;5072265;28;20251;-64
2021/12/03 01:28:51;;;;;;;7.30;5.15;;;;;;;;;;5072286;28;20202;-63
2021/12/03 01:31:18;;;;;;;6.95;4.80;;;;;;;;;;5072293;28;20202;-64
2021/12/03 01:33:46;;;;;;;8.10;4.80;;;;;;;;;;5072418;28;20243;-64
2021/12/03 01:36:16;;;;;;;6.00;4.50;;;;;;;;;;5072222;28;20214;-63
2021/12/03 01:38:46;;;;;;;5.63;3.83;;;;;;;;;;5072291;28;20655;-63
2021/12/03 01:41:16;;;;;;;9.52;5.30;;;;;;;;;;5072307;28;20190;-64
2021/12/03 01:43:47;;;;;;;5.57;4.55;;;;;;;;;;5072171;28;20190;-63
2021/12/03 01:46:19;;;;;;;5.60;3.22;;;;;;;;;;5072147;28;20603;-63
2021/12/03 01:48:52;;;;;;;6.05;4.63;;;;;;;;;;5072297;28;20251;-64
2021/12/03 01:51:23;;;;;;;6.18;4.32;;;;;;;;;;5072412;28;20252;-64
2021/12/03 01:53:54;;;;;;;6.43;4.25;;;;;;;;;;5071969;28;20264;-64
2021/12/03 01:56:24;;;;;;;6.95;4.80;;;;;;;;;;5071961;28;20226;-63
2021/12/03 01:58:52;;;;;;;7.82;4.53;;;;;;;;;;5071866;28;20722;-64
2021/12/03 02:01:24;;;;;;;5.85;5.13;;;;;;;;;;5072041;28;20194;-64
2021/12/03 02:03:53;;;;;;;7.10;4.60;;;;;;;;;;5072175;28;20622;-64
2021/12/03 02:06:23;;;;;;;8.20;4.10;;;;;;;;;;5072030;28;20303;-63
2021/12/03 02:08:53;;;;;;;7.88;4.60;;;;;;;;;;5071975;28;20194;-64
2021/12/03 02:11:20;;;;;;;7.90;4.32;;;;;;;;;;5071776;28;20235;-64
2021/12/03 02:13:48;;;;;;;9.20;5.35;;;;;;;;;;5073759;28;20630;-64
2021/12/03 02:16:18;;;;;;;7.43;4.97;;;;;;;;;;5075396;28;20234;-63
2021/12/03 02:18:49;;;;;;;7.50;4.40;;;;;;;;;;5075730;28;20225;-63
2021/12/03 02:21:18;;;;;;;7.47;4.85;;;;;;;;;;5075528;28;20190;-63
2021/12/03 02:23:51;;;;;;;6.72;5.15;;;;;;;;;;5075698;28;20606;-64
2021/12/03 02:26:22;;;;;;;6.90;4.78;;;;;;;;;;5075598;28;20190;-64
2021/12/03 02:28:51;;;;;;;6.97;4.68;;;;;;;;;;5075580;28;20198;-64
2021/12/03 02:31:19;;;;;;;6.43;4.25;;;;;;;;;;5075427;28;20267;-64
2021/12/03 02:33:47;;;;;;;6.05;4.60;;;;;;;;;;5075321;28;20251;-63
2021/12/03 02:36:14;;;;;;;9.00;4.95;;;;;;;;;;5075242;28;20715;-64
2021/12/03 02:38:43;;;;;;;5.55;4.00;;;;;;;;;;5075143;28;20596;-64
2021/12/03 02:41:11;;;;;;;6.72;4.30;;;;;;;;;;5075004;28;20232;-64
2021/12/03 02:43:38;;;;;;;8.20;4.47;;;;;;;;;;5075034;28;20194;-63
2021/12/03 02:46:08;;;;;;;7.28;4.50;;;;;;;;;;5074138;28;20259;-63
2021/12/03 02:48:37;;;;;;;7.75;4.95;;;;;;;;;;5074859;28;20200;-63
2021/12/03 02:51:10;;;;;;;8.02;4.88;;;;;;;;;;5074281;28;20213;-65
2021/12/03 02:53:39;;;;;;;5.85;4.18;;;;;;;;;;5074216;28;20224;-63
2021/12/03 02:56:09;;;;;;;8.35;4.85;;;;;;;;;;5074629;28;21546;-64
2021/12/03 02:58:37;;;;;;;7.05;4.60;;;;;;;;;;5074865;28;20197;-64
2021/12/03 03:01:09;;;;;;;7.18;4.32;;;;;;;;;;5074670;28;20190;-63
2021/12/03 03:03:39;;;;;;;7.28;4.72;;;;;;;;;;5054654;28;20190;-64
2021/12/03 03:06:20;;;;;;;6.78;4.88;;;;;;;;;;5054526;28;20194;-64
2021/12/03 03:08:50;;;;;;;6.75;4.85;;;;;;;;;;5054654;28;20202;-63
2021/12/03 03:11:22;;;;;;;8.52;4.90;;;;;;;;;;5054416;28;20248;-66
2021/12/03 03:13:50;;;;;;;5.50;4.20;;;;;;;;;;5074293;28;20232;-64
2021/12/03 03:16:27;;;;;;;6.57;4.63;;;;;;;;;;5074557;28;20226;-64
2021/12/03 03:19:00;;;;;;;4.85;3.25;;;;;;;;;;5054562;28;20201;-64
2021/12/03 03:21:30;;;;;;;6.95;4.75;;;;;;;;;;5054316;28;20209;-65
2021/12/03 03:24:01;;;;;;;8.25;4.15;;;;;;;;;;5054160;28;20186;-64
2021/12/03 03:26:31;;;;;;;5.13;4.20;;;;;;;;;;5054376;28;20198;-64
2021/12/03 03:29:01;;;;;;;5.40;4.72;;;;;;;;;;5073800;28;20321;-64
2021/12/03 03:31:29;;;;;;;8.88;5.13;;;;;;;;;;5074461;28;20225;-64
2021/12/03 03:33:56;;;;;;;9.20;4.57;;;;;;;;;;5073712;28;20186;-63
2021/12/03 03:36:24;;;;;;;7.40;4.07;;;;;;;;;;5074214;28;20625;-64
2021/12/03 03:38:56;;;;;;;5.63;3.50;;;;;;;;;;5073872;28;20187;-64
2021/12/03 03:41:26;;;;;;;5.00;3.65;;;;;;;;;;5073958;28;20300;-63
2021/12/03 03:43:58;;;;;;;6.35;3.45;;;;;;;;;;5073586;28;20247;-64
2021/12/03 03:46:31;;;;;;;6.10;4.35;;;;;;;;;;5073861;28;20255;-64
2021/12/03 03:48:59;;;;;;;5.63;3.78;;;;;;;;;;5073670;28;20271;-64
2021/12/03 03:51:30;;;;;;;5.20;3.95;;;;;;;;;;5074038;28;20645;-64
2021/12/03 03:54:00;;;;;;;5.22;4.00;;;;;;;;;;5073569;28;20186;-63
2021/12/03 03:56:31;;;;;;;5.82;3.83;;;;;;;;;;5073834;28;20213;-64
2021/12/03 03:59:03;;;;;;;5.97;4.03;;;;;;;;;;5073449;28;20192;-63
2021/12/03 04:01:30;;;;;;;5.53;3.75;;;;;;;;;;5073463;28;20190;-64
2021/12/03 04:04:02;;;;;;;6.70;4.70;;;;;;;;;;5073545;28;20198;-64
2021/12/03 04:06:31;;;;;;;7.38;4.80;;;;;;;;;;5073149;28;20229;-64
2021/12/03 04:09:00;;;;;;;5.20;4.00;;;;;;;;;;5073385;28;20285;-63
2021/12/03 04:11:28;;;;;;;6.97;4.72;;;;;;;;;;5073283;28;20256;-64
2021/12/03 04:14:01;;;;;;;8.48;5.10;;;;;;;;;;5072925;28;20584;-64
2021/12/03 04:16:32;;;;;;;6.07;4.68;;;;;;;;;;5073077;28;20578;-63
2021/12/03 04:19:00;;;;;;;5.97;4.13;;;;;;;;;;5072704;28;20555;-63
2021/12/03 04:21:31;;;;;;;7.00;4.45;;;;;;;;;;5073236;28;20190;-64
2021/12/03 04:24:02;;;;;;;5.63;4.85;;;;;;;;;;5072797;28;20190;-64
2021/12/03 04:26:29;;;;;;;5.78;4.18;;;;;;;;;;5072927;28;20244;-63
2021/12/03 04:28:57;;;;;;;6.35;5.00;;;;;;;;;;5072647;28;20189;-64
2021/12/03 04:31:25;;;;;;;6.38;4.57;;;;;;;;;;5072986;28;20553;-64
2021/12/03 04:33:58;;;;;;;8.85;4.70;;;;;;;;;;5072424;28;20208;-64
2021/12/03 04:36:27;;;;;;;5.93;4.78;;;;;;;;;;5072189;28;20220;-63
2021/12/03 04:38:57;;;;;;;5.82;4.38;;;;;;;;;;5072352;28;20187;-64
2021/12/03 04:41:26;;;;;;;6.00;4.35;;;;;;;;;;5072605;28;20198;-64
2021/12/03 04:43:56;;;;;;;6.30;5.15;;;;;;;;;;5072249;28;20205;-64
2021/12/03 04:46:26;;;;;;;9.93;4.35;;;;;;;;;;5072558;28;20186;-64
2021/12/03 04:48:55;;;;;;;5.70;4.28;;;;;;;;;;5072468;28;20552;-64
2021/12/03 04:51:27;;;;;;;7.28;4.60;;;;;;;;;;5072638;28;20194;-64
2021/12/03 04:53:54;;;;;;;6.13;4.60;;;;;;;;;;5053154;28;20226;-64
2021/12/03 04:56:23;;;;;;;6.38;4.70;;;;;;;;;;5052762;28;20195;-64
2021/12/03 04:58:50;;;;;;;8.07;4.85;;;;;;;;;;5053125;28;20213;-64
2021/12/03 05:01:31;;;;;;;5.40;4.32;;;;;;;;;;5052557;28;20237;-64
2021/12/03 05:03:59;;;;;;;6.13;4.25;;;;;;;;;;5053042;28;20195;-64
2021/12/03 05:06:42;;;;;;;5.75;4.25;;;;;;;;;;5052798;28;20252;-64
2021/12/03 05:09:09;;;;;;;6.28;4.22;;;;;;;;;;5052994;28;20244;-63
2021/12/03 05:11:37;;;;;;;5.75;4.25;;;;;;;;;;5053052;28;20191;-64
2021/12/03 05:14:07;;;;;;;5.38;4.03;;;;;;;;;;5052589;28;20201;-63
2021/12/03 05:16:37;;;;;;;10.10;4.32;;;;;;;;;;5051558;28;20318;-64
2021/12/03 05:19:04;;;;;;;6.70;4.93;;;;;;;;;;5051764;28;20617;-64
2021/12/03 05:21:33;;;;;;;6.65;4.70;;;;;;;;;;5051866;28;20187;-64
2021/12/03 05:24:00;;;;;;;6.25;4.30;;;;;;;;;;5051956;28;20257;-63
2021/12/03 05:26:27;;;;;;;6.25;4.57;;;;;;;;;;5052063;28;20198;-63
2021/12/03 05:28:55;;;;;;;5.38;4.28;;;;;;;;;;5051440;28;20226;-64
2021/12/03 05:31:22;;;;;;;5.65;4.25;;;;;;;;;;5051595;28;20230;-64
2021/12/03 05:33:49;;;;;;;7.28;5.50;;;;;;;;;;5051830;28;20286;-64
2021/12/03 05:36:17;;;;;;;7.38;4.90;;;;;;;;;;5051221;28;20194;-63
2021/12/03 05:38:45;;;;;;;7.10;4.57;;;;;;;;;;5051277;28;20222;-63
2021/12/03 05:41:13;;;;;;;7.43;5.30;;;;;;;;;;5051463;28;20226;-63
2021/12/03 05:43:43;;;;;;;7.00;4.82;;;;;;;;;;5051579;28;20198;-63
2021/12/03 05:46:10;;;;;;;6.18;4.20;;;;;;;;;;5051059;28;20198;-64
2021/12/03 05:48:37;;;;;;;7.38;4.30;;;;;;;;;;5049796;28;20248;-63
2021/12/03 05:51:06;;;;;;;7.13;5.03;;;;;;;;;;5051240;28;20194;-64
2021/12/03 05:53:33;;;;;;;7.10;4.30;;;;;;;;;;5051379;28;20608;-63
2021/12/03 05:56:02;;;;;;;4.55;4.00;;;;;;;;;;5051514;28;20615;-64
2021/12/03 05:58:29;;;;;;;6.43;4.78;;;;;;;;;;5051277;28;20264;-64
2021/12/03 06:00:56;;;;;;;8.25;5.45;;;;;;;;;;5051089;28;20217;-63
2021/12/03 06:03:25;;;;;;;6.93;4.60;;;;;;;;;;5051248;28;20222;-64
2021/12/03 06:05:53;;;;;;;12.10;5.95;;;;;;;;;;5051427;28;20272;-63
2021/12/03 06:08:20;;;;;;;11.73;6.90;;;;;;;;;;5052592;28;20284;-64
2021/12/03 06:10:48;;;;;;;9.45;5.65;;;;;;;;;;5067376;28;20221;-70
2021/12/03 06:13:20;;;;;;;13.57;7.00;;;;;;;;;;5051137;28;20195;-63
2021/12/03 06:15:48;;;;;;;8.17;5.60;;;;;;;;;;5011097;28;1362465;-64
2021/12/03 06:18:17;;;;;;;9.30;5.93;;;;;;;;;;5064778;28;20229;-63
2021/12/03 06:20:45;;;;;;;8.85;6.45;;;;;;;;;;5069134;28;20190;-64
2021/12/03 06:23:12;;;;;;;9.40;5.68;;;;;;;;;;5069084;28;20195;-63
2021/12/03 06:25:40;;;;;;;9.52;6.32;;;;;;;;;;5056660;28;20246;-64
2021/12/03 06:28:10;;;;;;;10.85;6.53;;;;;;;;;;5051219;28;20191;-64
2021/12/03 06:30:39;;;;;;;10.52;7.00;;;;;;;;;;5055120;28;20218;-63
2021/12/03 06:33:15;;;;;;;10.65;7.32;;;;;;;;;;5053915;28;20561;-64
2021/12/03 06:35:43;;;;;;;9.70;6.53;;;;;;;;;;5055322;28;20195;-64
2021/12/03 06:38:13;;;;;;;11.02;7.05;;;;;;;;;;5053318;28;20225;-63
2021/12/03 06:40:42;;;;;;;12.95;9.25;;;;;;;;;;5051932;28;20209;-64
2021/12/03 06:43:09;;;;;;;11.15;7.65;;;;;;;;;;5055850;28;20241;-64
2021/12/03 06:45:38;;;;;;;47.50;23.33;;;;;;;;;;5054155;28;20187;-63
2021/12/03 06:48:06;;;;;;;14.35;9.25;;;;;;;;;;5051847;28;20191;-64
2021/12/03 06:50:34;;;;;;;36.15;19.23;;;;;;;;;;5051229;28;20195;-64
2021/12/03 06:53:04;;;;;;;49.40;25.00;;;;;;;;;;5052407;28;20230;-64
2021/12/03 06:55:38;;;;;;;39.20;21.65;;;;;;;;;;5052029;28;20233;-64
2021/12/03 06:58:06;;;;;;;47.50;27.45;;;;;;;;;;5052643;28;20271;-64
2021/12/03 07:00:33;;;;;;;27.58;15.68;;;;;;;;;;5045082;28;20609;-65
2021/12/03 07:03:02;;;;;;;31.20;19.23;;;;;;;;;;5052050;28;20269;-65
2021/12/03 07:05:30;;;;;;;32.30;22.02;;;;;;;;;;5057249;28;20274;-64
2021/12/03 07:08:14;;;;;;;18.83;12.95;;;;;;;;;;5053800;28;20209;-64
2021/12/03 07:10:42;;;;;;;13.27;9.38;;;;;;;;;;5058335;28;20598;-64
2021/12/03 07:13:12;;;;;;;13.02;7.90;;;;;;;;;;5062052;28;20201;-63
2021/12/03 07:15:40;;;;;;;18.13;10.60;;;;;;;;;;5056043;28;20297;-64
2021/12/03 07:18:13;;;;;;;9.95;7.63;;;;;;;;;;5071671;28;20946;-64
2021/12/03 07:20:43;;;;;;;9.02;6.47;;;;;;;;;;5068718;28;20206;-64
2021/12/03 07:23:10;;;;;;;7.68;5.88;;;;;;;;;;5072589;28;20187;-64
2021/12/03 07:25:38;;;;;;;9.88;6.72;;;;;;;;;;5072472;28;20230;-65
2021/12/03 07:28:07;;;;;;;8.18;5.82;;;;;;;;;;5058785;28;20187;-64
2021/12/03 07:30:34;;;;;;;9.20;6.25;;;;;;;;;;5067810;28;20694;-64
2021/12/03 07:33:02;;;;;;;10.57;7.45;;;;;;;;;;5070979;28;20277;-64
2021/12/03 07:35:30;;;;;;;10.50;7.35;;;;;;;;;;5071473;28;20561;-64
2021/12/03 07:37:58;;;;;;;12.20;8.35;;;;;;;;;;5066876;28;20248;-64
2021/12/03 07:40:25;;;;;;;14.10;8.02;;;;;;;;;;5054025;28;20277;-65
2021/12/03 07:42:52;;;;;;;12.70;6.93;;;;;;;;;;5061421;28;20240;-65
2021/12/03 07:45:20;;;;;;;11.27;6.97;;;;;;;;;;5071986;28;20190;-64
2021/12/03 07:47:48;;;;;;;8.98;7.13;;;;;;;;;;5066259;28;20214;-64
2021/12/03 07:50:16;;;;;;;13.52;8.23;;;;;;;;;;5054164;28;20230;-64
2021/12/03 07:52:45;;;;;;;7.43;5.53;;;;;;;;;;5061531;28;20233;-63
2021/12/03 07:55:12;;;;;;;7.82;5.28;;;;;;;;;;5070629;28;20673;-65
2021/12/03 07:57:39;;;;;;;8.60;5.30;;;;;;;;;;5071180;28;20236;-64
2021/12/03 08:00:07;;;;;;;9.90;6.18;;;;;;;;;;5064171;28;20281;-64
2021/12/03 08:02:35;;;;;;;9.98;5.70;;;;;;;;;;5053687;28;20273;-64
2021/12/03 08:05:02;;;;;;;8.00;5.70;;;;;;;;;;5061228;28;20218;-64
2021/12/03 08:07:30;;;;;;;9.05;5.97;;;;;;;;;;5071587;28;20195;-63
2021/12/03 08:09:59;;;;;;;8.57;5.35;;;;;;;;;;5071097;28;20182;-64
2021/12/03 08:12:28;;;;;;;6.78;5.55;;;;;;;;;;5069181;28;20654;-64
2021/12/03 08:14:57;;;;;;;6.32;4.97;;;;;;;;;;5060617;28;20192;-66
2021/12/03 08:17:27;;;;;;;6.55;4.65;;;;;;;;;;5070405;28;20195;-65
2021/12/03 08:19:57;;;;;;;7.47;5.18;;;;;;;;;;5055410;28;20178;-64
2021/12/03 08:22:30;;;;;;;6.97;5.10;;;;;;;;;;5061079;28;20227;-64
2021/12/03 08:25:00;;;;;;;6.72;4.95;;;;;;;;;;5069479;28;20217;-64
2021/12/03 08:27:28;;;;;;;7.47;4.93;;;;;;;;;;5065096;28;20223;-65
2021/12/03 08:29:57;;;;;;;7.03;5.13;;;;;;;;;;5062835;28;20186;-65
2021/12/03 08:32:24;;;;;;;7.13;5.35;;;;;;;;;;5068680;28;20194;-65
2021/12/03 08:34:52;;;;;;;9.55;5.32;;;;;;;;;;5053374;28;20260;-64
2021/12/03 08:37:19;;;;;;;6.80;4.30;;;;;;;;;;5056346;28;20308;-66
2021/12/03 08:39:50;;;;;;;5.90;4.43;;;;;;;;;;5066742;28;20233;-63
2021/12/03 08:42:19;;;;;;;6.30;4.95;;;;;;;;;;5069668;28;20234;-63
2021/12/03 08:44:46;;;;;;;5.30;4.40;;;;;;;;;;5065117;28;20245;-65
2021/12/03 08:47:13;;;;;;;5.75;4.80;;;;;;;;;;5052893;28;20544;-65
2021/12/03 08:49:47;;;;;;;6.47;3.92;;;;;;;;;;5057777;28;20182;-64
2021/12/03 08:55:10;;;;;;;6.18;4.28;;;;;;;;;;5012587;28;20287;-63
2021/12/03 08:57:39;;;;;;;6.05;3.63;;;;;;;;;;5056898;28;20638;-63
2021/12/03 09:00:08;;;;;;;5.00;3.90;;;;;;;;;;5061696;28;20217;-63
2021/12/03 09:02:38;;;;;;;5.60;4.32;;;;;;;;;;5070717;28;20225;-63
2021/12/03 09:05:05;;;;;;;6.55;4.13;;;;;;;;;;5055538;28;20178;-65
2021/12/03 09:07:33;;;;;;;4.55;3.60;;;;;;;;;;5052401;28;20190;-64
2021/12/03 09:10:00;;;;;;;6.50;3.90;;;;;;;;;;5065966;28;20694;-64
2021/12/03 09:12:30;;;;;;;4.93;3.85;;;;;;;;;;5069861;28;20683;-65
2021/12/03 09:15:02;;;;;;;6.13;4.00;;;;;;;;;;5065018;28;20659;-65
2021/12/03 09:17:37;;;;;;;6.05;3.83;;;;;;;;;;5057086;28;20194;-64
2021/12/03 09:20:16;;;;;;;5.50;4.55;;;;;;;;;;5057804;28;20224;-65
2021/12/03 09:22:46;;;;;;;5.93;4.63;;;;;;;;;;5056626;28;20195;-64
2021/12/03 09:25:22;;;;;;;5.32;3.92;;;;;;;;;;5069518;28;20197;-65
2021/12/03 09:27:52;;;;;;;7.22;4.15;;;;;;;;;;5070102;28;20220;-65
2021/12/03 09:30:24;;;;;;;7.03;4.05;;;;;;;;;;5069427;28;20244;-64
2021/12/03 09:32:56;;;;;;;4.13;3.63;;;;;;;;;;5066217;28;20270;-64
2021/12/03 09:35:26;;;;;;;7.00;4.18;;;;;;;;;;5060758;28;20197;-63
2021/12/03 09:37:54;;;;;;;6.43;5.10;;;;;;;;;;5051666;28;20191;-64
2021/12/03 09:40:24;;;;;;;7.75;5.13;;;;;;;;;;5058150;28;20190;-64
2021/12/03 09:42:52;;;;;;;6.20;4.90;;;;;;;;;;5052179;28;20195;-64
2021/12/03 09:45:22;;;;;;;8.13;5.90;;;;;;;;;;5051572;28;20195;-63
2021/12/03 09:47:59;;;;;;;9.23;5.63;;;;;;;;;;5055893;28;20187;-63
2021/12/03 09:50:33;;;;;;;7.90;5.95;;;;;;;;;;5051752;28;20619;-64
2021/12/03 09:53:16;;;;;;;7.75;6.25;;;;;;;;;;5056284;28;20278;-64
2021/12/03 09:55:46;;;;;;;8.00;5.70;;;;;;;;;;5064528;28;20215;-64
2021/12/03 09:58:27;;;;;;;9.50;5.72;;;;;;;;;;5065679;28;20278;-63
2021/12/03 10:01:02;;;;;;;7.38;5.63;;;;;;;;;;5064946;28;20261;-63
2021/12/03 10:03:58;;;;;;;9.70;5.93;;;;;;;;;;5066551;28;20590;-64
2021/12/03 10:12:41;;;;;;;7.30;5.65;;;;;;;;;;5008268;28;20218;-64
2021/12/03 10:15:10;;;;;;;5.95;4.80;;;;;;;;;;5019177;28;20318;-65
2021/12/03 10:17:47;;;;;;;6.97;5.20;;;;;;;;;;5052494;28;20225;-65
2021/12/03 10:37:55;;;;;;;6.90;4.80;;;;;;;;;;5046486;28;20207;-65
2021/12/03 10:46:32;;;;;;;8.82;5.63;;;;;;;;;;5055988;28;20541;-64
2021/12/03 10:49:11;;;;;;;6.45;5.20;;;;;;;;;;5067246;28;20195;-65
2021/12/03 10:51:50;;;;;;;5.80;4.95;;;;;;;;;;5054953;28;20194;-64
2021/12/03 10:54:39;;;;;;;8.95;5.50;;;;;;;;;;5063178;28;20190;-65
2021/12/03 10:57:38;;;;;;;6.45;5.55;;;;;;;;;;5057548;28;20218;-65
2021/12/03 11:00:36;;;;;;;7.47;5.60;;;;;;;;;;5056580;28;20211;-65
2021/12/03 11:12:39;;;;;;;7.25;5.38;;;;;;;;;;5011554;28;20263;-65
2021/12/03 14:05:20;;;;;;;3.92;3.00;;;;;;;;;;5058305;28;20335;-66
2021/12/03 14:38:51;;;;;;;4.03;3.22;;;;;;;;;;5066448;28;20235;-64
2021/12/03 14:44:22;;;;;;;7.70;4.40;;;;;;;;;;5065929;28;20353;-64
2021/12/03 14:47:33;;;;;;;6.55;4.00;;;;;;;;;;5069955;28;20644;-65
2021/12/03 14:55:33;;;;;;;5.03;3.20;;;;;;;;;;5054563;28;20198;-64
2021/12/03 14:58:01;;;;;;;6.05;4.60;;;;;;;;;;5066402;28;20182;-65
2021/12/03 15:00:34;;;;;;;5.65;4.00;;;;;;;;;;5064271;28;20226;-64
2021/12/03 15:03:26;;;;;;;15.10;9.43;;;;;;;;;;5068208;28;20210;-64
2021/12/03 15:06:07;;;;;;;15.55;11.00;;;;;;;;;;5066340;28;20201;-65
2021/12/03 15:08:38;;;;;;;12.27;6.22;;;;;;;;;;5062298;28;20525;-65
2021/12/03 15:25:04;;;;;;;8.85;4.72;;;;;;;;;;5053550;28;20197;-64
2021/12/03 15:33:03;;;;;;;10.98;6.40;;;;;;;;;;5067295;28;20205;-64
2021/12/03 15:35:39;;;;;;;7.95;4.13;;;;;;;;;;5064537;28;20256;-64
2021/12/03 15:58:05;;;;;;;13.90;7.68;;;;;;;;;;5064488;28;20197;-65
2021/12/03 16:03:57;;;;;;;14.52;9.90;;;;;;;;;;5066298;28;20339;-64
2021/12/03 16:09:29;;;;;;;27.75;16.60;;;;;;;;;;5063486;28;20194;-65
2021/12/03 16:12:01;;;;;;;21.15;13.18;;;;;;;;;;5068645;28;20204;-64
2021/12/03 16:14:50;;;;;;;11.15;7.95;;;;;;;;;;5067970;28;20277;-64
2021/12/03 16:23:16;;;;;;;14.00;9.30;;;;;;;;;;5058801;28;20710;-65
2021/12/03 16:45:28;;;;;;;10.05;7.93;;;;;;;;;;5067355;28;20208;-63
2021/12/03 16:51:07;;;;;;;15.52;11.18;;;;;;;;;;5060900;28;20265;-63
2021/12/03 16:53:43;;;;;;;16.95;9.38;;;;;;;;;;5068632;28;20186;-63
2021/12/03 16:56:14;;;;;;;12.20;8.20;;;;;;;;;;5052663;28;20280;-64
2021/12/03 16:58:48;;;;;;;16.83;9.88;;;;;;;;;;5063747;28;20199;-64
2021/12/03 17:01:27;;;;;;;14.73;9.82;;;;;;;;;;5069721;28;20684;-66
2021/12/03 17:04:16;;;;;;;14.38;9.63;;;;;;;;;;5068241;28;20251;-63
2021/12/03 17:12:45;;;;;;;11.20;8.27;;;;;;;;;;5047614;28;20194;-64
2021/12/03 17:15:26;;;;;;;14.15;10.32;;;;;;;;;;5050717;28;20197;-64
2021/12/03 17:48:41;;;;;;;16.25;12.05;;;;;;;;;;5040272;28;20230;-65
2021/12/03 17:51:37;;;;;;;21.83;14.43;;;;;;;;;;5067499;28;20194;-64
2021/12/03 17:56:54;;;;;;;17.55;9.85;;;;;;;;;;5069731;28;20194;-65
2021/12/03 17:59:33;;;;;;;14.73;8.95;;;;;;;;;;5069318;28;20198;-64
2021/12/03 18:02:11;;;;;;;16.10;11.95;;;;;;;;;;5069514;28;20285;-64
2021/12/03 18:05:01;;;;;;;15.77;8.88;;;;;;;;;;5068435;28;20186;-64
2021/12/03 18:07:45;;;;;;;12.00;8.02;;;;;;;;;;5068608;28;20278;-65
2021/12/03 18:10:42;;;;;;;14.30;8.02;;;;;;;;;;5067239;28;20182;-64
2021/12/03 18:46:47;;;;;;;27.05;19.27;;;;;;;;;;5062530;28;20191;-63
2021/12/03 18:52:26;;;;;;;9.23;5.95;;;;;;;;;;5068423;28;20216;-64
2021/12/03 18:55:00;;;;;;;16.17;10.32;;;;;;;;;;5051474;28;20677;-64
2021/12/03 18:57:31;;;;;;;10.18;6.95;;;;;;;;;;5054748;28;20198;-64
2021/12/03 19:00:04;;;;;;;8.77;6.90;;;;;;;;;;5054768;28;20234;-64
2021/12/03 19:02:33;;;;;;;11.27;6.72;;;;;;;;;;5058370;28;20225;-64
2021/12/03 19:05:03;;;;;;;8.57;6.00;;;;;;;;;;5054349;28;20194;-64
2021/12/03 19:07:37;;;;;;;10.73;8.00;;;;;;;;;;5054605;28;20278;-65
2021/12/03 19:10:25;;;;;;;14.32;7.28;;;;;;;;;;5054577;28;20191;-64
2021/12/03 19:12:56;;;;;;;29.92;15.27;;;;;;;;;;5068615;28;20269;-64
2021/12/03 19:15:26;;;;;;;17.42;8.75;;;;;;;;;;5072186;28;20259;-64
2021/12/03 19:17:53;;;;;;;8.48;6.05;;;;;;;;;;5072328;28;20243;-65
2021/12/03 19:20:27;;;;;;;12.60;8.40;;;;;;;;;;5067981;28;20706;-64
2021/12/03 19:23:00;;;;;;;23.45;13.85;;;;;;;;;;5072440;28;20273;-65
2021/12/03 19:25:28;;;;;;;13.32;8.05;;;;;;;;;;5071684;28;20240;-64
2021/12/03 19:28:01;;;;;;;9.63;5.35;;;;;;;;;;5072097;28;20190;-64
2021/12/03 19:30:38;;;;;;;11.70;7.50;;;;;;;;;;5071663;28;20709;-63
2021/12/03 19:33:08;;;;;;;56.90;29.40;;;;;;;;;;5067988;28;20598;-64
2021/12/03 19:35:37;;;;;;;27.05;15.88;;;;;;;;;;5064809;28;20193;-63
2021/12/03 19:38:05;;;;;;;11.82;8.05;;;;;;;;;;5070806;28;20186;-64
2021/12/03 19:40:42;;;;;;;13.68;9.43;;;;;;;;;;5067749;28;20307;-64
2021/12/03 19:43:12;;;;;;;10.55;7.57;;;;;;;;;;5071452;28;20639;-64
2021/12/03 19:45:49;;;;;;;8.07;6.45;;;;;;;;;;5053816;28;20203;-65
2021/12/03 19:48:18;;;;;;;10.35;7.00;;;;;;;;;;5069265;28;20203;-64
2021/12/03 19:50:54;;;;;;;6.00;3.92;;;;;;;;;;5071961;28;20608;-64
2021/12/03 19:53:37;;;;;;;7.50;4.15;;;;;;;;;;5057280;28;20178;-65
2021/12/03 19:56:06;;;;;;;9.50;4.93;;;;;;;;;;5056445;28;20178;-64
2021/12/03 19:58:34;;;;;;;9.18;6.75;;;;;;;;;;5053846;28;20309;-64
2021/12/03 20:01:06;;;;;;;8.02;6.00;;;;;;;;;;5056283;28;20267;-64
2021/12/03 20:03:36;;;;;;;6.63;4.32;;;;;;;;;;5053598;28;20658;-64
2021/12/03 20:06:13;;;;;;;6.88;4.40;;;;;;;;;;5053805;28;20344;-64
2021/12/03 20:08:46;;;;;;;7.25;4.10;;;;;;;;;;5063981;28;20236;-65
2021/12/03 20:11:26;;;;;;;7.75;4.68;;;;;;;;;;5067619;28;20202;-64
2021/12/03 20:14:01;;;;;;;6.20;4.10;;;;;;;;;;5055585;28;20205;-64
2021/12/03 20:16:35;;;;;;;5.20;3.60;;;;;;;;;;5053181;28;20222;-64
2021/12/03 20:19:12;;;;;;;7.85;4.82;;;;;;;;;;5053838;28;20547;-64
2021/12/03 20:21:45;;;;;;;11.32;5.63;;;;;;;;;;5068170;28;20628;-64
2021/12/03 20:24:31;;;;;;;8.38;4.90;;;;;;;;;;5068936;28;20245;-64
2021/12/03 20:27:01;;;;;;;6.72;4.30;;;;;;;;;;5068966;28;20194;-64
2021/12/03 20:29:39;;;;;;;7.88;4.97;;;;;;;;;;5070240;28;20201;-65
2021/12/03 20:32:18;;;;;;;5.70;4.63;;;;;;;;;;5068359;28;20202;-64
2021/12/03 20:34:59;;;;;;;5.15;3.95;;;;;;;;;;5065048;28;20182;-64
2021/12/03 20:37:34;;;;;;;5.53;4.28;;;;;;;;;;5052858;28;20282;-64
2021/12/03 20:40:11;;;;;;;7.13;5.25;;;;;;;;;;5060842;28;20191;-64
2021/12/03 20:42:58;;;;;;;9.25;5.15;;;;;;;;;;5052968;28;20282;-64
2021/12/03 20:45:48;;;;;;;7.40;5.15;;;;;;;;;;5061137;28;20282;-64
2021/12/03 20:48:41;;;;;;;9.65;5.85;;;;;;;;;;5060024;28;20187;-64
2021/12/03 20:51:17;;;;;;;9.32;6.05;;;;;;;;;;5058984;28;20667;-64
2021/12/03 20:53:49;;;;;;;10.57;6.82;;;;;;;;;;5059747;28;20235;-63
2021/12/03 21:08:07;;;;;;;12.25;7.68;;;;;;;;;;5034437;28;20629;-64
2021/12/03 21:10:46;;;;;;;24.73;15.60;;;;;;;;;;5044880;28;20252;-63
2021/12/03 21:13:31;;;;;;;11.70;6.03;;;;;;;;;;5065424;28;20550;-65
2021/12/03 21:16:14;;;;;;;16.77;7.32;;;;;;;;;;5068012;28;20237;-64
2021/12/03 21:18:48;;;;;;;14.25;7.85;;;;;;;;;;5069198;28;20183;-63
2021/12/03 21:21:29;;;;;;;12.43;7.82;;;;;;;;;;5069913;28;20605;-63
2021/12/03 21:24:06;;;;;;;11.82;6.43;;;;;;;;;;5067228;28;20949;-64
2021/12/03 21:26:34;;;;;;;24.02;15.45;;;;;;;;;;5069049;28;20197;-64
2021/12/03 21:29:16;;;;;;;22.75;12.35;;;;;;;;;;5059409;28;20187;-63
2021/12/03 21:31:50;;;;;;;13.77;6.65;;;;;;;;;;5051866;28;20278;-64
2021/12/03 21:40:06;;;;;;;5.90;3.95;;;;;;;;;;5055712;28;20229;-64
2021/12/03 21:42:39;;;;;;;7.50;4.82;;;;;;;;;;5052027;28;20554;-63
2021/12/03 21:45:12;;;;;;;9.68;5.13;;;;;;;;;;5066076;28;20208;-63
2021/12/03 21:47:42;;;;;;;8.38;5.80;;;;;;;;;;5057620;28;20241;-63
2021/12/03 21:50:10;;;;;;;8.68;5.85;;;;;;;;;;5051723;28;20198;-63
2021/12/03 21:52:41;;;;;;;8.98;5.75;;;;;;;;;;5051736;28;20190;-63
2021/12/03 21:55:13;;;;;;;12.65;7.72;;;;;;;;;;5056337;28;20187;-63
2021/12/03 21:57:45;;;;;;;7.82;5.63;;;;;;;;;;5051674;28;20198;-63
2021/12/03 22:00:13;;;;;;;10.80;5.78;;;;;;;;;;5053609;28;20191;-63
2021/12/03 22:02:42;;;;;;;9.88;6.05;;;;;;;;;;5053772;28;20191;-63
2021/12/03 22:05:10;;;;;;;11.35;6.13;;;;;;;;;;5053086;28;20191;-64